Detall de PIREP

Printer-friendly versionPDF version

[2013/12/31 10:23:00]
Flight IATA:CT1004
Pilot Number:042
Company ICAO:CAT
Aircraft Type:C750/F
PAX:3
Departing Airport: LOWI
Destination Airport: LERS
Alternate Airport:LEPA
Online: VATSIM
Route:RTT Y703 INN UM726 BZO UM984 DIVKO UN975 BGR H110 GIR
Flight Level:F370
No Slew and time accel
No pause
Crash detect
Detect pilot in Cockpit between each 30 and 45 minutes
10:23 Zero fuel Weight: 22920 Lbs, Fuel Weight: 12980 Lbs
10:23 VATSIM:LOWI 310950Z 27005KT CAVOK M02/M05 Q1023 R08/19//70 NOSIG
10:23 VATSIM:LERS 311000Z VRB02KT CAVOK 09/02 Q1021
10:23 VOICE CATALONIAN/X-MAS CHARTER
10:36 Parking Brakes off
10:41 Take-off
10:41 Take off Weight: 35762 Lbs
10:41 Wind: 269º @ 008 Knots Heading: 261º
10:41 POS N47º 15´ 32´´ E011º 19´ 57´´
10:41 Gear Up: 166 Knots
10:41 Flaps:3 at 166 Knots
10:41 Flaps:2 at 175 Knots
10:41 Flaps:0 at 190 Knots
10:56 Wind:247º@008 Knots Heading: 273º Ground Speed: 409 Knots Altitude 31519 ft
10:58 TOC
10:58 Fuel Weight: 12182 Lb
11:11 Wind:317º@003 Knots Heading: 243º Ground Speed: 490 Knots Altitude 37286 ft
11:26 Wind:356º@011 Knots Heading: 214º Ground Speed: 498 Knots Altitude 37312 ft
11:41 Wind:162º@000 Knots Heading: 247º Ground Speed: 488 Knots Altitude 37293 ft
11:53 TOD
11:53 Fuel Weight: 10736 Lb
11:56 Wind:072º@024 Knots Heading: 219º Ground Speed: 471 Knots Altitude 29261 ft
12:11 Wind:279º@004 Knots Heading: 255º Ground Speed: 312 Knots Altitude 11407 ft
12:21 Flaps:2 at 198 Knots
12:23 Flaps:3 at 203 Knots
12:23 Gear Down: 175 Knots
12:23 Flaps:4 at 175 Knots
12:24 Flaps:5 at 153 Knots
12:26 Wind:003º@003 Knots Heading: 250º Ground Speed: 140 Knots Altitude 374 ft
12:26 TouchDown:Rate -247 ft/min Speed: 121 Knots
12:26 VATSIM:LERS 311200Z VRB01KT 9999 FEW040 11/01 Q1019
12:26 Land
12:26 Wind:354º@003 Knots
12:26 Heading: 251º
12:26 Flight Duration: 01:45
12:26 Landing Weight: 33303 Lbs
12:26 POS N41º 08´ 48´´ E001º 09´ 53´´
12:29 Parking brakes on
12:29 Block to Block Duration: 01:53
12:29 Final Fuel: 10357 Lbls
12:29 Spent Fuel: 2623 Lbls
12:29 Flight Length: 607 NM
12:29 TOD Land Length: 168 NM

Exportar CSV

Powered by Drupal - Modified by Danger4k